UAE9CL OMDB-EDDM
Flight info
| Callsign | UAE9CL |
|---|---|
| Flight time | 5h 48m |
| Altitude | 34000 |
| Route | RIDAP M557 TUMAK L602 GADSI M860 SEPTU DCT VUSEB M860 NINVA UM860 TALIL/N0483F360 UM860 ODALI UL852 NEGEM DCT BULEN DCT DIRER DCT TISAK DCT BABIT DCT GOTAR DCT AMADI Q113 NAPSA NAPSA1B |
| Aircraft | B77W/H-SDE1E2E3FGHIJ2J3J4J5M1RWXY/LB1D1 |
Departure
| Time | 2026-05-06 20:52 |
|---|---|
| Airport | Dubai International Airport (OMDB) |
Arrival
| Time | 2026-05-07 02:40 |
|---|---|
| Airport | Munich Airport (EDDM) |
| Time | Latitude | Longitude | Altitude | Speed | Heading |
|---|---|---|---|---|---|
| 2026-05-06 20:21 | 25.24476 | 55.37145 | 26 ft | 0 kts | 211° |
| 2026-05-06 20:43 | 25.24485 | 55.37151 | 27 ft | 4 kts | 211° |
| 2026-05-06 20:43 | 25.24507 | 55.37166 | 26 ft | 4 kts | 211° |
| 2026-05-06 20:43 | 25.24529 | 55.37180 | 26 ft | 4 kts | 211° |
| 2026-05-06 20:43 | 25.24553 | 55.37189 | 24 ft | 4 kts | 156° |
| 2026-05-06 20:44 | 25.24565 | 55.37178 | 25 ft | 0 kts | 119° |
| 2026-05-06 20:46 | 25.24549 | 55.37211 | 25 ft | 11 kts | 119° |
| 2026-05-06 20:46 | 25.24506 | 55.37288 | 27 ft | 12 kts | 122° |
| 2026-05-06 20:46 | 25.24462 | 55.37366 | 27 ft | 13 kts | 122° |
| 2026-05-06 20:46 | 25.24396 | 55.37482 | 27 ft | 20 kts | 122° |
| 2026-05-06 20:47 | 25.24331 | 55.37598 | 27 ft | 14 kts | 122° |
| 2026-05-06 20:47 | 25.24279 | 55.37689 | 27 ft | 14 kts | 122° |
| 2026-05-06 20:47 | 25.24266 | 55.37771 | 27 ft | 9 kts | 53° |
| 2026-05-06 20:47 | 25.24317 | 55.37812 | 27 ft | 9 kts | 35° |
| 2026-05-06 20:48 | 25.24369 | 55.37852 | 27 ft | 9 kts | 35° |
| 2026-05-06 20:48 | 25.24421 | 55.37892 | 27 ft | 9 kts | 35° |
| 2026-05-06 20:48 | 25.24473 | 55.37932 | 27 ft | 9 kts | 35° |
| 2026-05-06 20:48 | 25.24524 | 55.37972 | 27 ft | 9 kts | 35° |
| 2026-05-06 20:49 | 25.24577 | 55.38010 | 27 ft | 9 kts | 32° |
| 2026-05-06 20:49 | 25.24631 | 55.38047 | 27 ft | 9 kts | 32° |
| 2026-05-06 20:49 | 25.24637 | 55.38051 | 27 ft | 0 kts | 32° |
| 2026-05-06 20:49 | 25.24660 | 55.38066 | 27 ft | 12 kts | 32° |
| 2026-05-06 20:50 | 25.24713 | 55.38103 | 27 ft | 5 kts | 32° |
| 2026-05-06 20:50 | 25.24748 | 55.38110 | 27 ft | 5 kts | 335° |
| 2026-05-06 20:50 | 25.24774 | 55.38079 | 27 ft | 6 kts | 311° |
| 2026-05-06 20:50 | 25.24800 | 55.38038 | 27 ft | 13 kts | 304° |
| 2026-05-06 20:51 | 25.24925 | 55.37815 | 27 ft | 65 kts | 300° |
| 2026-05-06 20:51 | 25.25280 | 55.37172 | 27 ft | 129 kts | 302° |
| 2026-05-06 20:51 | 25.25846 | 55.36152 | 27 ft | 180 kts | 302° |
| 2026-05-06 20:51 | 25.26520 | 55.34924 | 369 ft | 187 kts | 302° |
| 2026-05-06 20:52 | 25.27250 | 55.33655 | 650 ft | 206 kts | 301° |
| 2026-05-06 20:52 | 25.28028 | 55.32245 | 947 ft | 221 kts | 300° |
| 2026-05-06 20:52 | 25.28854 | 55.30751 | 1281 ft | 238 kts | 300° |
| 2026-05-06 20:52 | 25.29756 | 55.29129 | 1597 ft | 256 kts | 301° |
| 2026-05-06 20:53 | 25.30779 | 55.27479 | 2103 ft | 264 kts | 304° |
| 2026-05-06 20:53 | 25.31866 | 55.25793 | 2625 ft | 273 kts | 305° |
| 2026-05-06 20:53 | 25.32977 | 55.24066 | 3237 ft | 277 kts | 306° |
| 2026-05-06 20:53 | 25.34098 | 55.22320 | 3924 ft | 278 kts | 306° |
| 2026-05-06 20:54 | 25.35190 | 55.20596 | 4664 ft | 276 kts | 303° |
| 2026-05-06 20:54 | 25.35851 | 55.18605 | 5172 ft | 284 kts | 274° |
| 2026-05-06 20:54 | 25.35811 | 55.16422 | 5723 ft | 286 kts | 269° |
| 2026-05-06 20:54 | 25.35720 | 55.14218 | 6364 ft | 288 kts | 269° |
| 2026-05-06 20:55 | 25.35629 | 55.12004 | 7030 ft | 289 kts | 269° |
| 2026-05-06 20:55 | 25.35540 | 55.09775 | 7638 ft | 292 kts | 269° |
| 2026-05-06 20:55 | 25.35452 | 55.07523 | 8242 ft | 295 kts | 269° |
| 2026-05-06 20:55 | 25.35365 | 55.05247 | 8855 ft | 298 kts | 269° |
| 2026-05-06 20:56 | 25.35280 | 55.02950 | 9476 ft | 300 kts | 269° |
| 2026-05-06 20:56 | 25.35195 | 55.00663 | 10050 ft | 304 kts | 269° |
| 2026-05-06 20:56 | 25.35110 | 54.98321 | 10288 ft | 321 kts | 269° |
| 2026-05-06 20:56 | 25.35018 | 54.95771 | 10447 ft | 342 kts | 269° |
| 2026-05-06 20:57 | 25.34919 | 54.93066 | 10607 ft | 363 kts | 269° |
| 2026-05-06 20:57 | 25.34939 | 54.90230 | 10698 ft | 376 kts | 280° |
| 2026-05-06 20:57 | 25.35647 | 54.87426 | 11003 ft | 384 kts | 291° |
| 2026-05-06 20:57 | 25.36538 | 54.84616 | 11541 ft | 391 kts | 290° |
| 2026-05-06 20:58 | 25.37414 | 54.81754 | 12243 ft | 395 kts | 289° |
| 2026-05-06 20:58 | 25.38267 | 54.78860 | 13023 ft | 397 kts | 289° |
| 2026-05-06 20:58 | 25.39106 | 54.75941 | 13782 ft | 400 kts | 289° |
| 2026-05-06 20:58 | 25.39935 | 54.73033 | 14438 ft | 403 kts | 288° |
| 2026-05-06 20:59 | 25.40783 | 54.70066 | 15093 ft | 407 kts | 288° |
| 2026-05-06 20:59 | 25.41646 | 54.67075 | 15734 ft | 410 kts | 289° |
| 2026-05-06 20:59 | 25.42520 | 54.64059 | 16390 ft | 413 kts | 288° |
| 2026-05-06 20:59 | 25.43398 | 54.61023 | 17039 ft | 416 kts | 288° |
| 2026-05-06 21:00 | 25.44292 | 54.57964 | 17677 ft | 420 kts | 288° |
| 2026-05-06 21:00 | 25.45202 | 54.54877 | 18280 ft | 424 kts | 288° |
| 2026-05-06 21:00 | 25.46121 | 54.51759 | 18857 ft | 427 kts | 288° |
| 2026-05-06 21:00 | 25.47030 | 54.48673 | 19451 ft | 429 kts | 288° |
| 2026-05-06 21:01 | 25.47952 | 54.45536 | 20111 ft | 428 kts | 287° |
| 2026-05-06 21:01 | 25.48875 | 54.42388 | 20659 ft | 432 kts | 287° |
| 2026-05-06 21:01 | 25.49806 | 54.39208 | 21195 ft | 436 kts | 287° |
| 2026-05-06 21:01 | 25.50741 | 54.36010 | 21777 ft | 438 kts | 287° |
| 2026-05-06 21:02 | 25.51680 | 54.32796 | 22356 ft | 440 kts | 287° |
| 2026-05-06 21:02 | 25.52623 | 54.29567 | 22917 ft | 442 kts | 287° |
| 2026-05-06 21:02 | 25.53572 | 54.26316 | 23438 ft | 445 kts | 287° |
| 2026-05-06 21:02 | 25.54526 | 54.23050 | 23871 ft | 447 kts | 287° |
| 2026-05-06 21:03 | 25.55494 | 54.19770 | 24338 ft | 449 kts | 287° |
| 2026-05-06 21:03 | 25.56468 | 54.16487 | 24793 ft | 450 kts | 287° |
| 2026-05-06 21:03 | 25.57432 | 54.13234 | 25235 ft | 451 kts | 287° |
| 2026-05-06 21:03 | 25.58408 | 54.09930 | 25694 ft | 452 kts | 287° |
| 2026-05-06 21:04 | 25.59386 | 54.06615 | 26137 ft | 453 kts | 286° |
| 2026-05-06 21:04 | 25.60348 | 54.03285 | 26583 ft | 455 kts | 286° |
| 2026-05-06 21:04 | 25.61294 | 53.99948 | 26978 ft | 457 kts | 285° |
| 2026-05-06 21:04 | 25.62230 | 53.96629 | 27398 ft | 458 kts | 285° |
| 2026-05-06 21:05 | 25.63180 | 53.93255 | 27845 ft | 459 kts | 285° |
| 2026-05-06 21:05 | 25.64133 | 53.89883 | 28284 ft | 459 kts | 285° |
| 2026-05-06 21:05 | 25.65075 | 53.86547 | 28657 ft | 461 kts | 285° |
| 2026-05-06 21:05 | 25.66034 | 53.83155 | 29015 ft | 462 kts | 285° |
| 2026-05-06 21:06 | 25.66996 | 53.79751 | 29367 ft | 463 kts | 285° |
| 2026-05-06 21:06 | 25.67961 | 53.76336 | 29706 ft | 464 kts | 285° |
| 2026-05-06 21:06 | 25.68923 | 53.72924 | 30100 ft | 463 kts | 284° |
| 2026-05-06 21:06 | 25.69880 | 53.69526 | 30534 ft | 460 kts | 284° |
| 2026-05-06 21:07 | 25.70818 | 53.66188 | 30942 ft | 458 kts | 284° |
| 2026-05-06 21:07 | 25.71763 | 53.62822 | 31313 ft | 457 kts | 284° |
| 2026-05-06 21:07 | 25.72705 | 53.59460 | 31668 ft | 456 kts | 284° |
| 2026-05-06 21:07 | 25.73646 | 53.56100 | 32029 ft | 455 kts | 284° |
| 2026-05-06 21:08 | 25.74583 | 53.52755 | 32397 ft | 454 kts | 284° |
| 2026-05-06 21:08 | 25.75517 | 53.49420 | 32788 ft | 452 kts | 284° |
| 2026-05-06 21:08 | 25.76453 | 53.46105 | 33238 ft | 448 kts | 284° |
| 2026-05-06 21:08 | 25.77385 | 53.42814 | 33637 ft | 446 kts | 284° |
| 2026-05-06 21:09 | 25.78316 | 53.39520 | 33784 ft | 450 kts | 284° |
| 2026-05-06 21:09 | 25.80177 | 53.32919 | 33840 ft | 451 kts | 284° |
| 2026-05-06 21:10 | 25.82035 | 53.26319 | 33841 ft | 446 kts | 284° |
| 2026-05-06 21:10 | 25.83882 | 53.19769 | 33848 ft | 444 kts | 285° |
| 2026-05-06 21:11 | 25.86256 | 53.13412 | 33853 ft | 447 kts | 290° |
| 2026-05-06 21:11 | 25.88830 | 53.07172 | 33853 ft | 448 kts | 290° |
| 2026-05-06 21:12 | 25.91407 | 53.00866 | 33860 ft | 449 kts | 290° |
| 2026-05-06 21:12 | 25.93954 | 52.94583 | 33861 ft | 450 kts | 290° |
| 2026-05-06 21:13 | 25.96522 | 52.88229 | 33865 ft | 451 kts | 290° |
| 2026-05-06 21:13 | 25.99096 | 52.81855 | 33861 ft | 452 kts | 290° |
| 2026-05-06 21:14 | 26.01651 | 52.75524 | 33862 ft | 453 kts | 290° |
| 2026-05-06 21:14 | 26.04385 | 52.69213 | 33870 ft | 453 kts | 292° |
| 2026-05-06 21:15 | 26.07259 | 52.62986 | 33865 ft | 452 kts | 292° |
| 2026-05-06 21:15 | 26.10077 | 52.56760 | 33870 ft | 449 kts | 291° |
| 2026-05-06 21:16 | 26.12870 | 52.50550 | 33868 ft | 448 kts | 292° |
| 2026-05-06 21:16 | 26.15659 | 52.44401 | 33867 ft | 448 kts | 292° |
| 2026-05-06 21:17 | 26.18463 | 52.38213 | 33876 ft | 448 kts | 291° |
| 2026-05-06 21:17 | 26.21260 | 52.32023 | 33871 ft | 447 kts | 291° |
| 2026-05-06 21:18 | 26.23986 | 52.25859 | 33871 ft | 446 kts | 290° |
| 2026-05-06 21:18 | 26.26666 | 52.19628 | 33875 ft | 446 kts | 290° |
| 2026-05-06 21:19 | 26.29352 | 52.13398 | 33876 ft | 446 kts | 290° |
| 2026-05-06 21:19 | 26.32048 | 52.07162 | 33890 ft | 446 kts | 290° |
| 2026-05-06 21:20 | 26.34703 | 52.00957 | 33875 ft | 446 kts | 290° |
| 2026-05-06 21:20 | 26.37336 | 51.94758 | 33876 ft | 445 kts | 289° |
| 2026-05-06 21:21 | 26.39536 | 51.88351 | 33883 ft | 442 kts | 285° |
| 2026-05-06 21:21 | 26.41663 | 51.81921 | 33876 ft | 442 kts | 285° |
| 2026-05-06 21:22 | 26.43840 | 51.75495 | 33872 ft | 443 kts | 285° |
| 2026-05-06 21:22 | 26.45996 | 51.69114 | 33876 ft | 442 kts | 285° |
| 2026-05-06 21:23 | 26.48171 | 51.62707 | 33866 ft | 440 kts | 285° |
| 2026-05-06 21:23 | 26.50412 | 51.56350 | 33867 ft | 442 kts | 290° |
| 2026-05-06 21:24 | 26.53540 | 51.50395 | 33863 ft | 449 kts | 299° |
| 2026-05-06 21:24 | 26.57314 | 51.44884 | 33871 ft | 450 kts | 301° |
| 2026-05-06 21:25 | 26.61157 | 51.39378 | 33872 ft | 449 kts | 301° |
| 2026-05-06 21:25 | 26.64976 | 51.33869 | 33865 ft | 448 kts | 301° |
| 2026-05-06 21:26 | 26.68771 | 51.28359 | 33863 ft | 447 kts | 301° |
| 2026-05-06 21:26 | 26.72554 | 51.22848 | 33863 ft | 447 kts | 301° |
| 2026-05-06 21:27 | 26.76314 | 51.17364 | 33876 ft | 447 kts | 300° |
| 2026-05-06 21:27 | 26.80099 | 51.11836 | 33863 ft | 448 kts | 300° |
| 2026-05-06 21:28 | 26.83887 | 51.06298 | 33866 ft | 448 kts | 300° |
| 2026-05-06 21:28 | 26.87676 | 51.00752 | 33867 ft | 448 kts | 300° |
| 2026-05-06 21:29 | 26.91404 | 50.95290 | 33880 ft | 449 kts | 300° |
| 2026-05-06 21:29 | 26.95195 | 50.89729 | 33870 ft | 449 kts | 300° |
| 2026-05-06 21:30 | 26.98979 | 50.84170 | 33868 ft | 449 kts | 300° |
| 2026-05-06 21:30 | 27.02759 | 50.78610 | 33870 ft | 448 kts | 300° |
| 2026-05-06 21:31 | 27.06513 | 50.73082 | 33885 ft | 448 kts | 300° |
| 2026-05-06 21:31 | 27.10285 | 50.67520 | 33886 ft | 448 kts | 300° |
| 2026-05-06 21:32 | 27.14401 | 50.62209 | 33880 ft | 456 kts | 308° |
| 2026-05-06 21:32 | 27.21863 | 50.55385 | 33881 ft | 462 kts | 313° |
| 2026-05-06 21:33 | 27.26868 | 50.50944 | 33884 ft | 461 kts | 313° |
| 2026-05-06 21:33 | 27.31882 | 50.46460 | 33882 ft | 460 kts | 312° |
| 2026-05-06 21:34 | 27.36881 | 50.41968 | 33876 ft | 459 kts | 312° |
| 2026-05-06 21:34 | 27.41871 | 50.37475 | 33879 ft | 460 kts | 312° |
| 2026-05-06 21:35 | 27.46831 | 50.33004 | 33878 ft | 460 kts | 312° |
| 2026-05-06 21:35 | 27.51831 | 50.28493 | 33899 ft | 461 kts | 312° |
| 2026-05-06 21:36 | 27.56835 | 50.23974 | 33886 ft | 461 kts | 312° |
| 2026-05-06 21:36 | 27.61846 | 50.19443 | 33896 ft | 462 kts | 312° |
| 2026-05-06 21:37 | 27.66820 | 50.14940 | 33889 ft | 462 kts | 312° |
| 2026-05-06 21:37 | 27.71828 | 50.10402 | 33887 ft | 461 kts | 312° |
| 2026-05-06 21:38 | 27.76827 | 50.05865 | 33917 ft | 461 kts | 311° |
| 2026-05-06 21:38 | 27.81821 | 50.01328 | 33899 ft | 460 kts | 311° |
| 2026-05-06 21:39 | 27.85916 | 49.97603 | 33895 ft | 460 kts | 311° |
| 2026-05-06 21:39 | 27.91698 | 49.92338 | 33893 ft | 459 kts | 311° |
| 2026-05-06 21:40 | 27.96667 | 49.87807 | 33909 ft | 459 kts | 311° |
| 2026-05-06 21:40 | 28.00787 | 49.84044 | 33907 ft | 458 kts | 311° |
| 2026-05-06 21:41 | 28.06583 | 49.78746 | 33896 ft | 458 kts | 311° |
| 2026-05-06 21:41 | 28.11501 | 49.74244 | 33918 ft | 457 kts | 311° |
| 2026-05-06 21:42 | 28.15613 | 49.70477 | 33913 ft | 457 kts | 311° |
| 2026-05-06 21:42 | 28.21389 | 49.65177 | 33903 ft | 457 kts | 311° |
| 2026-05-06 21:43 | 28.26288 | 49.60677 | 33908 ft | 456 kts | 311° |
| 2026-05-06 21:43 | 28.31222 | 49.56139 | 33903 ft | 456 kts | 310° |
| 2026-05-06 21:44 | 28.36143 | 49.51607 | 33908 ft | 455 kts | 310° |
| 2026-05-06 21:44 | 28.40229 | 49.47841 | 33906 ft | 455 kts | 310° |
| 2026-05-06 21:45 | 28.45136 | 49.43311 | 33915 ft | 454 kts | 310° |
| 2026-05-06 21:45 | 28.50830 | 49.38048 | 33920 ft | 454 kts | 310° |
| 2026-05-06 21:46 | 28.55723 | 49.33520 | 33904 ft | 453 kts | 310° |
| 2026-05-06 21:46 | 28.59787 | 49.29756 | 33910 ft | 453 kts | 310° |
| 2026-05-06 21:47 | 28.64665 | 49.25231 | 33911 ft | 453 kts | 310° |
| 2026-05-06 21:47 | 28.69537 | 49.20706 | 33914 ft | 452 kts | 310° |
| 2026-05-06 21:48 | 28.74368 | 49.16214 | 33915 ft | 451 kts | 310° |
| 2026-05-06 21:48 | 28.79225 | 49.11693 | 33934 ft | 450 kts | 310° |
| 2026-05-06 21:49 | 28.84073 | 49.07173 | 33917 ft | 450 kts | 310° |
| 2026-05-06 21:49 | 28.89700 | 49.01920 | 33918 ft | 449 kts | 310° |
| 2026-05-06 21:50 | 28.93708 | 48.98174 | 33918 ft | 449 kts | 310° |
| 2026-05-06 21:50 | 28.98507 | 48.93684 | 33925 ft | 449 kts | 310° |
| 2026-05-06 21:51 | 29.03333 | 48.89163 | 33916 ft | 449 kts | 310° |
| 2026-05-06 21:51 | 29.08157 | 48.84639 | 33923 ft | 448 kts | 310° |
| 2026-05-06 21:52 | 29.12970 | 48.80119 | 33919 ft | 448 kts | 310° |
| 2026-05-06 21:52 | 29.17748 | 48.75626 | 33917 ft | 447 kts | 310° |
| 2026-05-06 21:53 | 29.22553 | 48.71101 | 33919 ft | 447 kts | 310° |
| 2026-05-06 21:53 | 29.27357 | 48.66573 | 33918 ft | 448 kts | 310° |
| 2026-05-06 21:54 | 29.32167 | 48.62032 | 33918 ft | 448 kts | 310° |
| 2026-05-06 21:54 | 29.36977 | 48.57487 | 33917 ft | 448 kts | 310° |
| 2026-05-06 21:55 | 29.41756 | 48.52965 | 33916 ft | 448 kts | 310° |
| 2026-05-06 21:55 | 29.46569 | 48.48404 | 33920 ft | 449 kts | 310° |
| 2026-05-06 21:56 | 29.51381 | 48.43840 | 33913 ft | 449 kts | 310° |
| 2026-05-06 21:56 | 29.56192 | 48.39271 | 33924 ft | 449 kts | 309° |
| 2026-05-06 21:57 | 29.60968 | 48.34729 | 33929 ft | 449 kts | 309° |
| 2026-05-06 21:57 | 29.65779 | 48.30147 | 33920 ft | 449 kts | 309° |
| 2026-05-06 21:58 | 29.70592 | 48.25557 | 33922 ft | 449 kts | 309° |
| 2026-05-06 21:58 | 29.75404 | 48.20963 | 33940 ft | 450 kts | 309° |
| 2026-05-06 21:59 | 29.80186 | 48.16391 | 33939 ft | 450 kts | 309° |
| 2026-05-06 21:59 | 29.85005 | 48.11779 | 33938 ft | 451 kts | 309° |
| 2026-05-06 22:00 | 29.89828 | 48.07156 | 33938 ft | 451 kts | 309° |
| 2026-05-06 22:00 | 29.94648 | 48.02531 | 33943 ft | 451 kts | 309° |
| 2026-05-06 22:01 | 29.99390 | 47.97975 | 33937 ft | 451 kts | 309° |
| 2026-05-06 22:01 | 30.04198 | 47.93349 | 33946 ft | 450 kts | 309° |
| 2026-05-06 22:02 | 30.09009 | 47.88714 | 33954 ft | 451 kts | 309° |
| 2026-05-06 22:02 | 30.13821 | 47.84071 | 33951 ft | 451 kts | 309° |
| 2026-05-06 22:03 | 30.18635 | 47.79420 | 33954 ft | 451 kts | 309° |
| 2026-05-06 22:03 | 30.23416 | 47.74796 | 33972 ft | 451 kts | 309° |
| 2026-05-06 22:04 | 30.28236 | 47.70127 | 33955 ft | 452 kts | 309° |
| 2026-05-06 22:04 | 30.33052 | 47.65458 | 33955 ft | 452 kts | 309° |
| 2026-05-06 22:05 | 30.37868 | 47.60781 | 33963 ft | 452 kts | 310° |
| 2026-05-06 22:05 | 30.42680 | 47.56102 | 33944 ft | 452 kts | 310° |
| 2026-05-06 22:06 | 30.47461 | 47.51447 | 33941 ft | 452 kts | 310° |
| 2026-05-06 22:06 | 30.52271 | 47.46758 | 33962 ft | 452 kts | 310° |
| 2026-05-06 22:07 | 30.57082 | 47.42061 | 33961 ft | 452 kts | 310° |
| 2026-05-06 22:07 | 30.61891 | 47.37359 | 33954 ft | 452 kts | 310° |
| 2026-05-06 22:08 | 30.66670 | 47.32681 | 33965 ft | 452 kts | 310° |
| 2026-05-06 22:08 | 30.71485 | 47.27961 | 33975 ft | 453 kts | 310° |
| 2026-05-06 22:09 | 30.76296 | 47.23239 | 33972 ft | 453 kts | 310° |
| 2026-05-06 22:09 | 30.81110 | 47.18507 | 33975 ft | 453 kts | 310° |
| 2026-05-06 22:10 | 30.85895 | 47.13797 | 33978 ft | 454 kts | 310° |
| 2026-05-06 22:10 | 30.90716 | 47.09045 | 33978 ft | 454 kts | 310° |
| 2026-05-06 22:11 | 30.95539 | 47.04287 | 33978 ft | 454 kts | 310° |
| 2026-05-06 22:11 | 31.00319 | 46.99562 | 33989 ft | 455 kts | 310° |
| 2026-05-06 22:12 | 31.05117 | 46.94814 | 33989 ft | 455 kts | 310° |
| 2026-05-06 22:12 | 31.09947 | 46.90028 | 33986 ft | 456 kts | 310° |
| 2026-05-06 22:13 | 31.14779 | 46.85233 | 33997 ft | 456 kts | 310° |
| 2026-05-06 22:13 | 31.19617 | 46.80424 | 33995 ft | 457 kts | 309° |
| 2026-05-06 22:14 | 31.24456 | 46.75610 | 33991 ft | 457 kts | 309° |
| 2026-05-06 22:14 | 31.29268 | 46.70814 | 34008 ft | 458 kts | 309° |
| 2026-05-06 22:15 | 31.34120 | 46.65972 | 34002 ft | 459 kts | 309° |
| 2026-05-06 22:15 | 31.38975 | 46.61121 | 34003 ft | 459 kts | 309° |
| 2026-05-06 22:16 | 31.43832 | 46.56261 | 34007 ft | 460 kts | 309° |
| 2026-05-06 22:16 | 31.48659 | 46.51425 | 34003 ft | 460 kts | 309° |
| 2026-05-06 22:17 | 31.53519 | 46.46547 | 34007 ft | 460 kts | 309° |
| 2026-05-06 22:17 | 31.58407 | 46.41694 | 34014 ft | 464 kts | 313° |
| 2026-05-06 22:18 | 31.63977 | 46.37614 | 34016 ft | 481 kts | 323° |
| 2026-05-06 22:18 | 31.70005 | 46.34438 | 34040 ft | 485 kts | 326° |
| 2026-05-06 22:19 | 31.76192 | 46.31258 | 34031 ft | 485 kts | 326° |
| 2026-05-06 22:19 | 31.82364 | 46.28051 | 34026 ft | 485 kts | 326° |
| 2026-05-06 22:20 | 31.88526 | 46.24814 | 34040 ft | 485 kts | 325° |
| 2026-05-06 22:20 | 31.94640 | 46.21587 | 34036 ft | 485 kts | 325° |
| 2026-05-06 22:21 | 32.00794 | 46.18335 | 34034 ft | 485 kts | 325° |
| 2026-05-06 22:21 | 32.06949 | 46.15079 | 34036 ft | 485 kts | 325° |
| 2026-05-06 22:22 | 32.13106 | 46.11818 | 34043 ft | 485 kts | 325° |
| 2026-05-06 22:22 | 32.19213 | 46.08580 | 34041 ft | 484 kts | 325° |
| 2026-05-06 22:23 | 32.25357 | 46.05316 | 34040 ft | 484 kts | 325° |
| 2026-05-06 22:23 | 32.31499 | 46.02048 | 34040 ft | 484 kts | 325° |
| 2026-05-06 22:24 | 32.37591 | 45.98802 | 34051 ft | 484 kts | 325° |
| 2026-05-06 22:24 | 32.43694 | 45.95546 | 34048 ft | 484 kts | 325° |
| 2026-05-06 22:25 | 32.49835 | 45.92264 | 34074 ft | 484 kts | 325° |
| 2026-05-06 22:25 | 32.55983 | 45.88973 | 34047 ft | 485 kts | 325° |
| 2026-05-06 22:26 | 32.62124 | 45.85683 | 34044 ft | 484 kts | 325° |
| 2026-05-06 22:26 | 32.68256 | 45.82391 | 34062 ft | 483 kts | 325° |
| 2026-05-06 22:27 | 32.74337 | 45.79122 | 34052 ft | 483 kts | 325° |
| 2026-05-06 22:27 | 32.80456 | 45.75827 | 34055 ft | 482 kts | 325° |
| 2026-05-06 22:28 | 32.86570 | 45.72530 | 34052 ft | 482 kts | 325° |
| 2026-05-06 22:28 | 32.92643 | 45.69250 | 34051 ft | 482 kts | 325° |
| 2026-05-06 22:29 | 32.98744 | 45.65950 | 34070 ft | 482 kts | 325° |
| 2026-05-06 22:29 | 33.04849 | 45.62643 | 34061 ft | 482 kts | 325° |
| 2026-05-06 22:30 | 33.10956 | 45.59329 | 34055 ft | 482 kts | 325° |
| 2026-05-06 22:30 | 33.17065 | 45.56010 | 34053 ft | 483 kts | 325° |
| 2026-05-06 22:31 | 33.23135 | 45.52706 | 34056 ft | 483 kts | 325° |
| 2026-05-06 22:31 | 33.29247 | 45.49375 | 34076 ft | 483 kts | 325° |
| 2026-05-06 22:32 | 33.35364 | 45.46035 | 34063 ft | 483 kts | 325° |
| 2026-05-06 22:32 | 33.41479 | 45.42692 | 34056 ft | 483 kts | 325° |
| 2026-05-06 22:33 | 33.47596 | 45.39343 | 34057 ft | 484 kts | 325° |
| 2026-05-06 22:33 | 33.53672 | 45.36011 | 34043 ft | 483 kts | 325° |
| 2026-05-06 22:34 | 33.59781 | 45.32656 | 34062 ft | 483 kts | 325° |
| 2026-05-06 22:34 | 33.65889 | 45.29296 | 34058 ft | 483 kts | 325° |
| 2026-05-06 22:35 | 33.71990 | 45.25934 | 34051 ft | 483 kts | 325° |
| 2026-05-06 22:35 | 33.78050 | 45.22590 | 34036 ft | 482 kts | 325° |
| 2026-05-06 22:36 | 33.84147 | 45.19219 | 34032 ft | 482 kts | 325° |
| 2026-05-06 22:36 | 33.90246 | 45.15842 | 34031 ft | 483 kts | 324° |
| 2026-05-06 22:37 | 33.96346 | 45.12460 | 34036 ft | 483 kts | 324° |
| 2026-05-06 22:37 | 34.02398 | 45.09098 | 34032 ft | 483 kts | 324° |
| 2026-05-06 22:38 | 34.08506 | 45.05700 | 34032 ft | 484 kts | 324° |
| 2026-05-06 22:38 | 34.14629 | 45.02289 | 34034 ft | 484 kts | 324° |
| 2026-05-06 22:39 | 34.20691 | 44.98907 | 34065 ft | 485 kts | 324° |
| 2026-05-06 22:39 | 34.26812 | 44.95486 | 34045 ft | 484 kts | 324° |
| 2026-05-06 22:40 | 34.32878 | 44.92091 | 34038 ft | 483 kts | 324° |
| 2026-05-06 22:40 | 34.38980 | 44.88671 | 34043 ft | 483 kts | 324° |
| 2026-05-06 22:41 | 34.48110 | 44.83540 | 34048 ft | 482 kts | 324° |
| 2026-05-06 22:42 | 34.54187 | 44.80119 | 34044 ft | 481 kts | 324° |
| 2026-05-06 22:42 | 34.60218 | 44.76718 | 34047 ft | 481 kts | 324° |
| 2026-05-06 22:43 | 34.66284 | 44.73291 | 34086 ft | 481 kts | 324° |
| 2026-05-06 22:43 | 34.72351 | 44.69859 | 34060 ft | 481 kts | 324° |
| 2026-05-06 22:44 | 34.78416 | 44.66422 | 34055 ft | 481 kts | 324° |
| 2026-05-06 22:44 | 34.84474 | 44.62984 | 34055 ft | 480 kts | 324° |
| 2026-05-06 22:45 | 34.90489 | 44.59564 | 34056 ft | 480 kts | 323° |
| 2026-05-06 22:45 | 34.96542 | 44.56118 | 34067 ft | 480 kts | 323° |
| 2026-05-06 22:46 | 35.02585 | 44.52671 | 34064 ft | 480 kts | 323° |
| 2026-05-06 22:46 | 35.08632 | 44.49217 | 34057 ft | 479 kts | 323° |
| 2026-05-06 22:47 | 35.14623 | 44.45789 | 34063 ft | 479 kts | 323° |
| 2026-05-06 22:47 | 35.20659 | 44.42328 | 34057 ft | 479 kts | 323° |
| 2026-05-06 22:48 | 35.26696 | 44.38863 | 34038 ft | 479 kts | 323° |
| 2026-05-06 22:48 | 35.32724 | 44.35397 | 34029 ft | 478 kts | 323° |
| 2026-05-06 22:49 | 35.38741 | 44.31931 | 34019 ft | 477 kts | 323° |
| 2026-05-06 22:49 | 35.44704 | 44.28491 | 34022 ft | 477 kts | 323° |
| 2026-05-06 22:50 | 35.50701 | 44.25025 | 34020 ft | 476 kts | 323° |
| 2026-05-06 22:50 | 35.56697 | 44.21553 | 34053 ft | 476 kts | 324° |
| 2026-05-06 22:51 | 35.62695 | 44.18074 | 34053 ft | 477 kts | 324° |
| 2026-05-06 22:51 | 35.68697 | 44.14587 | 34046 ft | 478 kts | 324° |
| 2026-05-06 22:52 | 35.74663 | 44.11117 | 34047 ft | 477 kts | 324° |
| 2026-05-06 22:52 | 35.80660 | 44.07624 | 34060 ft | 476 kts | 324° |
| 2026-05-06 22:53 | 35.86646 | 44.04130 | 34056 ft | 476 kts | 324° |
| 2026-05-06 22:53 | 35.92632 | 44.00628 | 34068 ft | 477 kts | 324° |
| 2026-05-06 22:54 | 35.98532 | 43.97172 | 34061 ft | 477 kts | 324° |
| 2026-05-06 22:54 | 36.04522 | 43.93658 | 34050 ft | 477 kts | 324° |
| 2026-05-06 22:55 | 36.10520 | 43.90132 | 34056 ft | 477 kts | 323° |
| 2026-05-06 22:55 | 36.16517 | 43.86602 | 34045 ft | 477 kts | 323° |
| 2026-05-06 22:56 | 36.22515 | 43.83065 | 34056 ft | 477 kts | 323° |
| 2026-05-06 22:56 | 36.28463 | 43.79555 | 34058 ft | 477 kts | 324° |
| 2026-05-06 22:57 | 36.34604 | 43.76291 | 34062 ft | 482 kts | 327° |
| 2026-05-06 22:57 | 36.40829 | 43.73161 | 34128 ft | 485 kts | 327° |
| 2026-05-06 22:57 | 36.43959 | 43.71566 | 34379 ft | 485 kts | 327° |
| 2026-05-06 22:58 | 36.47071 | 43.69966 | 34713 ft | 484 kts | 327° |
| 2026-05-06 22:58 | 36.50174 | 43.68361 | 35058 ft | 482 kts | 327° |
| 2026-05-06 22:58 | 36.53214 | 43.66780 | 35439 ft | 480 kts | 327° |
| 2026-05-06 22:58 | 36.56289 | 43.65176 | 35736 ft | 479 kts | 327° |
| 2026-05-06 22:59 | 36.59360 | 43.63571 | 35980 ft | 480 kts | 327° |
| 2026-05-06 22:59 | 36.65565 | 43.60323 | 36076 ft | 485 kts | 327° |
| 2026-05-06 23:00 | 36.71763 | 43.57090 | 36068 ft | 480 kts | 327° |
| 2026-05-06 23:00 | 36.77844 | 43.53859 | 36071 ft | 476 kts | 326° |
| 2026-05-06 23:01 | 36.83867 | 43.50486 | 36096 ft | 474 kts | 325° |
| 2026-05-06 23:01 | 36.89883 | 43.47092 | 36076 ft | 474 kts | 325° |
| 2026-05-06 23:02 | 36.95896 | 43.43706 | 36086 ft | 472 kts | 323° |
| 2026-05-06 23:02 | 36.98693 | 43.41672 | 36091 ft | 459 kts | 314° |
| 2026-05-06 23:02 | 37.01123 | 43.39171 | 36081 ft | 448 kts | 306° |
| 2026-05-06 23:03 | 37.05076 | 43.33419 | 36086 ft | 434 kts | 297° |
| 2026-05-06 23:03 | 37.08699 | 43.27342 | 36077 ft | 437 kts | 297° |
| 2026-05-06 23:04 | 37.12361 | 43.21224 | 36087 ft | 441 kts | 298° |
| 2026-05-06 23:04 | 37.16065 | 43.15067 | 36075 ft | 443 kts | 298° |
| 2026-05-06 23:05 | 37.19785 | 43.08893 | 36074 ft | 443 kts | 298° |
| 2026-05-06 23:05 | 37.23475 | 43.02762 | 36070 ft | 443 kts | 298° |
| 2026-05-06 23:06 | 37.27137 | 42.96662 | 36067 ft | 440 kts | 298° |
| 2026-05-06 23:06 | 37.30820 | 42.90517 | 36071 ft | 440 kts | 298° |
| 2026-05-06 23:07 | 37.34497 | 42.84361 | 36079 ft | 441 kts | 298° |
| 2026-05-06 23:07 | 37.38171 | 42.78213 | 36056 ft | 439 kts | 298° |
| 2026-05-06 23:08 | 37.41805 | 42.72104 | 36071 ft | 439 kts | 298° |
| 2026-05-06 23:08 | 37.45461 | 42.65938 | 36095 ft | 439 kts | 299° |
| 2026-05-06 23:09 | 37.49135 | 42.59755 | 36071 ft | 442 kts | 299° |
| 2026-05-06 23:09 | 37.52815 | 42.53546 | 36066 ft | 442 kts | 299° |
| 2026-05-06 23:10 | 37.56467 | 42.47368 | 36066 ft | 443 kts | 299° |
| 2026-05-06 23:10 | 37.60144 | 42.41136 | 36069 ft | 443 kts | 299° |
| 2026-05-06 23:11 | 37.63824 | 42.34889 | 36062 ft | 444 kts | 299° |
| 2026-05-06 23:11 | 37.67512 | 42.28615 | 36055 ft | 445 kts | 299° |
| 2026-05-06 23:12 | 37.71167 | 42.22387 | 36038 ft | 443 kts | 299° |
| 2026-05-06 23:12 | 37.74828 | 42.16144 | 36052 ft | 442 kts | 299° |
| 2026-05-06 23:13 | 37.78484 | 42.09875 | 36055 ft | 444 kts | 299° |
| 2026-05-06 23:13 | 37.82163 | 42.03568 | 36056 ft | 447 kts | 299° |
| 2026-05-06 23:14 | 37.85799 | 41.97328 | 36039 ft | 447 kts | 299° |
| 2026-05-06 23:14 | 37.89478 | 41.90998 | 36047 ft | 447 kts | 299° |
| 2026-05-06 23:15 | 37.93380 | 41.84826 | 36060 ft | 452 kts | 304° |
| 2026-05-06 23:15 | 37.97560 | 41.78869 | 36052 ft | 453 kts | 304° |
| 2026-05-06 23:16 | 38.01716 | 41.72949 | 36061 ft | 453 kts | 304° |
| 2026-05-06 23:16 | 38.05889 | 41.66957 | 36059 ft | 453 kts | 304° |
| 2026-05-06 23:17 | 38.10044 | 41.60963 | 36051 ft | 452 kts | 304° |
| 2026-05-06 23:17 | 38.14196 | 41.54957 | 36061 ft | 452 kts | 304° |
| 2026-05-06 23:18 | 38.18347 | 41.48942 | 36057 ft | 452 kts | 304° |
| 2026-05-06 23:18 | 38.22460 | 41.42972 | 36060 ft | 452 kts | 304° |
| 2026-05-06 23:19 | 38.26603 | 41.36949 | 36062 ft | 453 kts | 304° |
| 2026-05-06 23:19 | 38.30748 | 41.30909 | 36057 ft | 453 kts | 304° |
| 2026-05-06 23:20 | 38.34895 | 41.24857 | 36064 ft | 453 kts | 304° |
| 2026-05-06 23:20 | 38.39007 | 41.18843 | 36067 ft | 453 kts | 304° |
| 2026-05-06 23:21 | 38.43145 | 41.12781 | 36066 ft | 453 kts | 305° |
| 2026-05-06 23:21 | 38.47271 | 41.06714 | 36069 ft | 453 kts | 304° |
| 2026-05-06 23:22 | 38.51317 | 41.00560 | 36052 ft | 452 kts | 304° |
| 2026-05-06 23:22 | 38.55301 | 40.94444 | 36053 ft | 453 kts | 304° |
| 2026-05-06 23:23 | 38.59307 | 40.88311 | 36046 ft | 453 kts | 304° |
| 2026-05-06 23:23 | 38.63345 | 40.82129 | 36052 ft | 453 kts | 304° |
| 2026-05-06 23:24 | 38.67408 | 40.75971 | 36069 ft | 452 kts | 304° |
| 2026-05-06 23:24 | 38.71459 | 40.69861 | 36058 ft | 454 kts | 304° |
| 2026-05-06 23:25 | 38.75548 | 40.63675 | 36059 ft | 456 kts | 305° |
| 2026-05-06 23:25 | 38.79637 | 40.57466 | 36047 ft | 456 kts | 305° |
| 2026-05-06 23:26 | 38.83728 | 40.51240 | 36048 ft | 456 kts | 304° |
| 2026-05-06 23:26 | 38.87810 | 40.45016 | 36046 ft | 455 kts | 305° |
| 2026-05-06 23:27 | 38.91856 | 40.38836 | 36043 ft | 455 kts | 305° |
| 2026-05-06 23:27 | 38.95925 | 40.32604 | 36035 ft | 455 kts | 305° |
| 2026-05-06 23:28 | 38.99996 | 40.26361 | 36032 ft | 456 kts | 305° |
| 2026-05-06 23:28 | 39.04063 | 40.20112 | 36041 ft | 456 kts | 305° |
| 2026-05-06 23:29 | 39.08112 | 40.13876 | 36029 ft | 457 kts | 305° |
| 2026-05-06 23:29 | 39.12192 | 40.07581 | 36032 ft | 459 kts | 305° |
| 2026-05-06 23:30 | 39.16282 | 40.01258 | 36033 ft | 460 kts | 305° |
| 2026-05-06 23:30 | 39.20335 | 39.94982 | 36029 ft | 459 kts | 305° |
| 2026-05-06 23:31 | 39.24396 | 39.88686 | 36031 ft | 460 kts | 305° |
| 2026-05-06 23:31 | 39.28483 | 39.82337 | 36017 ft | 460 kts | 305° |
| 2026-05-06 23:32 | 39.32564 | 39.75985 | 36011 ft | 459 kts | 305° |
| 2026-05-06 23:32 | 39.36635 | 39.69633 | 36036 ft | 459 kts | 305° |
| 2026-05-06 23:33 | 39.40711 | 39.63260 | 36026 ft | 460 kts | 305° |
| 2026-05-06 23:33 | 39.44767 | 39.56906 | 36044 ft | 462 kts | 305° |
| 2026-05-06 23:34 | 39.48854 | 39.50490 | 36043 ft | 462 kts | 306° |
| 2026-05-06 23:34 | 39.52939 | 39.44044 | 36043 ft | 463 kts | 305° |
| 2026-05-06 23:35 | 39.56977 | 39.37539 | 36037 ft | 463 kts | 305° |
| 2026-05-06 23:35 | 39.60977 | 39.31064 | 36042 ft | 464 kts | 305° |
| 2026-05-06 23:36 | 39.65016 | 39.24532 | 36045 ft | 465 kts | 305° |
| 2026-05-06 23:36 | 39.69062 | 39.17982 | 36038 ft | 465 kts | 305° |
| 2026-05-06 23:37 | 39.73104 | 39.11426 | 36070 ft | 465 kts | 306° |
| 2026-05-06 23:37 | 39.77173 | 39.04926 | 36059 ft | 467 kts | 306° |
| 2026-05-06 23:38 | 39.81256 | 38.98436 | 36056 ft | 468 kts | 306° |
| 2026-05-06 23:38 | 39.85377 | 38.91860 | 36065 ft | 470 kts | 306° |
| 2026-05-06 23:39 | 39.89496 | 38.85263 | 36065 ft | 470 kts | 306° |
| 2026-05-06 23:39 | 39.93583 | 38.78698 | 36065 ft | 470 kts | 306° |
| 2026-05-06 23:40 | 39.97698 | 38.72075 | 36069 ft | 470 kts | 306° |
| 2026-05-06 23:40 | 40.01807 | 38.65448 | 36068 ft | 470 kts | 306° |
| 2026-05-06 23:41 | 40.05909 | 38.58819 | 36074 ft | 469 kts | 306° |
| 2026-05-06 23:41 | 40.09980 | 38.52225 | 36079 ft | 470 kts | 307° |
| 2026-05-06 23:42 | 40.14082 | 38.45566 | 36082 ft | 471 kts | 307° |
| 2026-05-06 23:42 | 40.18185 | 38.38893 | 36088 ft | 471 kts | 306° |
| 2026-05-06 23:43 | 40.22291 | 38.32199 | 36131 ft | 472 kts | 307° |
| 2026-05-06 23:43 | 40.26378 | 38.25522 | 36116 ft | 474 kts | 307° |
| 2026-05-06 23:44 | 40.30489 | 38.18756 | 36116 ft | 475 kts | 304° |
| 2026-05-06 23:44 | 40.33891 | 38.11383 | 36102 ft | 471 kts | 294° |
| 2026-05-06 23:45 | 40.36357 | 38.03472 | 36097 ft | 468 kts | 289° |
| 2026-05-06 23:45 | 40.38647 | 37.95646 | 36103 ft | 467 kts | 289° |
| 2026-05-06 23:46 | 40.40999 | 37.87718 | 36105 ft | 466 kts | 290° |
| 2026-05-06 23:46 | 40.43366 | 37.79802 | 36112 ft | 466 kts | 290° |
| 2026-05-06 23:47 | 40.45729 | 37.71883 | 36108 ft | 466 kts | 290° |
| 2026-05-06 23:47 | 40.48072 | 37.63998 | 36123 ft | 467 kts | 290° |
| 2026-05-06 23:48 | 40.50431 | 37.56039 | 36110 ft | 468 kts | 290° |
| 2026-05-06 23:48 | 40.52790 | 37.48057 | 36114 ft | 469 kts | 290° |
| 2026-05-06 23:49 | 40.55150 | 37.40051 | 36116 ft | 470 kts | 290° |
| 2026-05-06 23:49 | 40.57505 | 37.32034 | 36114 ft | 470 kts | 290° |
| 2026-05-06 23:50 | 40.59842 | 37.24052 | 36119 ft | 471 kts | 290° |
| 2026-05-06 23:50 | 40.63363 | 37.11985 | 36118 ft | 471 kts | 290° |
| 2026-05-06 23:51 | 40.65706 | 37.03924 | 36118 ft | 472 kts | 290° |
| 2026-05-06 23:51 | 40.68022 | 36.95930 | 36134 ft | 472 kts | 290° |
| 2026-05-06 23:52 | 40.70344 | 36.87887 | 36120 ft | 473 kts | 290° |
| 2026-05-06 23:52 | 40.72680 | 36.79776 | 36118 ft | 473 kts | 290° |
| 2026-05-06 23:53 | 40.75007 | 36.71671 | 36107 ft | 472 kts | 290° |
| 2026-05-06 23:53 | 40.77328 | 36.63567 | 36124 ft | 472 kts | 290° |
| 2026-05-06 23:54 | 40.79638 | 36.55515 | 36112 ft | 473 kts | 290° |
| 2026-05-06 23:54 | 40.81962 | 36.47395 | 36112 ft | 473 kts | 290° |
| 2026-05-06 23:55 | 40.84278 | 36.39271 | 36106 ft | 473 kts | 290° |
| 2026-05-06 23:55 | 40.86589 | 36.31139 | 36122 ft | 473 kts | 290° |
| 2026-05-06 23:56 | 40.88894 | 36.22999 | 36107 ft | 473 kts | 290° |
| 2026-05-06 23:56 | 40.91179 | 36.14904 | 36113 ft | 473 kts | 290° |
| 2026-05-06 23:57 | 40.93479 | 36.06737 | 36096 ft | 474 kts | 290° |
| 2026-05-06 23:57 | 40.95719 | 35.98626 | 36101 ft | 474 kts | 289° |
| 2026-05-06 23:58 | 40.97958 | 35.90418 | 36098 ft | 474 kts | 289° |
| 2026-05-06 23:58 | 41.00191 | 35.82277 | 36091 ft | 475 kts | 290° |
| 2026-05-06 23:59 | 41.02470 | 35.74077 | 36105 ft | 475 kts | 290° |
| 2026-05-06 23:59 | 41.04748 | 35.65868 | 36101 ft | 475 kts | 290° |
| 2026-05-07 00:00 | 41.07014 | 35.57656 | 36102 ft | 475 kts | 290° |
| 2026-05-07 00:00 | 41.08892 | 35.50824 | 36083 ft | 475 kts | 290° |
| 2026-05-07 00:01 | 41.11506 | 35.41280 | 36078 ft | 473 kts | 290° |
| 2026-05-07 00:01 | 41.13747 | 35.33070 | 36076 ft | 473 kts | 290° |
| 2026-05-07 00:02 | 41.15976 | 35.24876 | 36078 ft | 472 kts | 290° |
| 2026-05-07 00:02 | 41.18198 | 35.16684 | 36074 ft | 471 kts | 290° |
| 2026-05-07 00:03 | 41.20395 | 35.08558 | 36075 ft | 471 kts | 290° |
| 2026-05-07 00:03 | 41.22603 | 35.00362 | 36072 ft | 471 kts | 290° |
| 2026-05-07 00:04 | 41.24783 | 34.92241 | 36069 ft | 471 kts | 290° |
| 2026-05-07 00:04 | 41.26981 | 34.84036 | 36074 ft | 471 kts | 290° |
| 2026-05-07 00:05 | 41.29157 | 34.75880 | 36081 ft | 471 kts | 290° |
| 2026-05-07 00:05 | 41.31345 | 34.67657 | 36077 ft | 472 kts | 290° |
| 2026-05-07 00:06 | 41.33529 | 34.59420 | 36081 ft | 472 kts | 290° |
| 2026-05-07 00:06 | 41.35705 | 34.51185 | 36083 ft | 472 kts | 290° |
| 2026-05-07 00:07 | 41.37875 | 34.42942 | 36080 ft | 472 kts | 290° |
| 2026-05-07 00:07 | 41.40026 | 34.34751 | 36069 ft | 471 kts | 290° |
| 2026-05-07 00:08 | 41.42166 | 34.26499 | 36082 ft | 471 kts | 290° |
| 2026-05-07 00:08 | 41.44287 | 34.18231 | 36082 ft | 472 kts | 290° |
| 2026-05-07 00:09 | 41.46409 | 34.09966 | 36086 ft | 471 kts | 290° |
| 2026-05-07 00:09 | 41.48523 | 34.01764 | 36077 ft | 470 kts | 290° |
| 2026-05-07 00:10 | 41.50624 | 33.93588 | 36082 ft | 470 kts | 290° |
| 2026-05-07 00:10 | 41.52733 | 33.85346 | 36103 ft | 469 kts | 290° |
| 2026-05-07 00:11 | 41.54833 | 33.77105 | 36084 ft | 469 kts | 290° |
| 2026-05-07 00:11 | 41.56926 | 33.68864 | 36098 ft | 468 kts | 291° |
| 2026-05-07 00:12 | 41.58999 | 33.60682 | 36085 ft | 468 kts | 290° |
| 2026-05-07 00:12 | 41.61050 | 33.52432 | 36086 ft | 468 kts | 290° |
| 2026-05-07 00:13 | 41.63110 | 33.44196 | 36092 ft | 467 kts | 291° |
| 2026-05-07 00:13 | 41.65188 | 33.35986 | 36093 ft | 466 kts | 291° |
| 2026-05-07 00:14 | 41.67242 | 33.27824 | 36091 ft | 466 kts | 291° |
| 2026-05-07 00:14 | 41.69297 | 33.19605 | 36088 ft | 466 kts | 291° |
| 2026-05-07 00:15 | 41.71342 | 33.11392 | 36084 ft | 465 kts | 291° |
| 2026-05-07 00:15 | 41.73378 | 33.03193 | 36093 ft | 464 kts | 291° |
| 2026-05-07 00:16 | 41.75353 | 32.95120 | 36105 ft | 463 kts | 290° |
| 2026-05-07 00:16 | 41.77339 | 32.86910 | 36106 ft | 464 kts | 290° |
| 2026-05-07 00:17 | 41.79327 | 32.78692 | 36110 ft | 463 kts | 290° |
| 2026-05-07 00:17 | 41.81323 | 32.70486 | 36115 ft | 463 kts | 291° |
| 2026-05-07 00:18 | 41.83342 | 32.62293 | 36120 ft | 463 kts | 291° |
| 2026-05-07 00:18 | 41.85341 | 32.54142 | 36116 ft | 463 kts | 291° |
| 2026-05-07 00:19 | 41.87340 | 32.45941 | 36116 ft | 462 kts | 291° |
| 2026-05-07 00:19 | 41.89274 | 32.37710 | 36117 ft | 462 kts | 290° |
| 2026-05-07 00:20 | 41.91216 | 32.29496 | 36119 ft | 462 kts | 290° |
| 2026-05-07 00:20 | 41.93168 | 32.21344 | 36119 ft | 462 kts | 290° |
| 2026-05-07 00:21 | 41.95120 | 32.13122 | 36122 ft | 462 kts | 290° |
| 2026-05-07 00:21 | 41.97065 | 32.04897 | 36123 ft | 462 kts | 290° |
| 2026-05-07 00:22 | 41.98991 | 31.96730 | 36119 ft | 462 kts | 290° |
| 2026-05-07 00:22 | 42.00914 | 31.88547 | 36100 ft | 463 kts | 290° |
| 2026-05-07 00:23 | 42.02844 | 31.80297 | 36114 ft | 462 kts | 290° |
| 2026-05-07 00:23 | 42.04765 | 31.72055 | 36121 ft | 462 kts | 290° |
| 2026-05-07 00:24 | 42.06680 | 31.63805 | 36120 ft | 462 kts | 290° |
| 2026-05-07 00:24 | 42.08591 | 31.55550 | 36100 ft | 462 kts | 290° |
| 2026-05-07 00:25 | 42.10479 | 31.47360 | 36118 ft | 461 kts | 290° |
| 2026-05-07 00:25 | 42.12053 | 31.40512 | 36122 ft | 461 kts | 290° |
| 2026-05-07 00:26 | 42.13946 | 31.32269 | 36118 ft | 460 kts | 290° |
| 2026-05-07 00:26 | 42.15834 | 31.24029 | 36105 ft | 460 kts | 290° |
| 2026-05-07 00:27 | 42.18018 | 31.14461 | 36115 ft | 459 kts | 290° |
| 2026-05-07 00:27 | 42.19890 | 31.06225 | 36117 ft | 459 kts | 290° |
| 2026-05-07 00:28 | 42.21738 | 30.98060 | 36118 ft | 459 kts | 290° |
| 2026-05-07 00:28 | 42.23596 | 30.89822 | 36108 ft | 459 kts | 290° |
| 2026-05-07 00:29 | 42.25136 | 30.82969 | 36118 ft | 459 kts | 290° |
| 2026-05-07 00:30 | 42.28817 | 30.66507 | 36119 ft | 460 kts | 289° |
| 2026-05-07 00:30 | 42.30658 | 30.58224 | 36113 ft | 461 kts | 289° |
| 2026-05-07 00:31 | 42.32496 | 30.49926 | 36113 ft | 461 kts | 289° |
| 2026-05-07 00:31 | 42.34329 | 30.41615 | 36127 ft | 462 kts | 289° |
| 2026-05-07 00:32 | 42.36158 | 30.33292 | 36126 ft | 462 kts | 289° |
| 2026-05-07 00:32 | 42.37971 | 30.25010 | 36109 ft | 462 kts | 289° |
| 2026-05-07 00:33 | 42.39788 | 30.16674 | 36119 ft | 462 kts | 289° |
| 2026-05-07 00:33 | 42.41600 | 30.08329 | 36119 ft | 462 kts | 288° |
| 2026-05-07 00:34 | 42.43405 | 29.99988 | 36121 ft | 462 kts | 288° |
| 2026-05-07 00:34 | 42.45180 | 29.91755 | 36119 ft | 462 kts | 288° |
| 2026-05-07 00:35 | 42.47287 | 29.83561 | 36120 ft | 460 kts | 296° |
| 2026-05-07 00:35 | 42.49983 | 29.75713 | 36124 ft | 460 kts | 297° |
| 2026-05-07 00:36 | 42.52704 | 29.67871 | 36113 ft | 460 kts | 296° |
| 2026-05-07 00:36 | 42.55382 | 29.60053 | 36119 ft | 461 kts | 296° |
| 2026-05-07 00:37 | 42.58061 | 29.52156 | 36123 ft | 461 kts | 296° |
| 2026-05-07 00:37 | 42.60732 | 29.44238 | 36123 ft | 461 kts | 296° |
| 2026-05-07 00:38 | 42.63400 | 29.36310 | 36119 ft | 462 kts | 296° |
| 2026-05-07 00:38 | 42.66065 | 29.28369 | 36124 ft | 462 kts | 296° |
| 2026-05-07 00:39 | 42.68710 | 29.20463 | 36125 ft | 463 kts | 296° |
| 2026-05-07 00:39 | 42.71369 | 29.12495 | 36126 ft | 463 kts | 296° |
| 2026-05-07 00:40 | 42.74024 | 29.04518 | 36122 ft | 463 kts | 296° |
| 2026-05-07 00:40 | 42.76652 | 28.96596 | 36122 ft | 463 kts | 296° |
| 2026-05-07 00:41 | 42.79279 | 28.88652 | 36122 ft | 463 kts | 296° |
| 2026-05-07 00:41 | 42.81918 | 28.80651 | 36122 ft | 463 kts | 296° |
| 2026-05-07 00:42 | 42.84550 | 28.72646 | 36122 ft | 463 kts | 296° |
| 2026-05-07 00:42 | 42.87175 | 28.64639 | 36122 ft | 463 kts | 296° |
| 2026-05-07 00:43 | 42.89793 | 28.56630 | 36123 ft | 463 kts | 296° |
| 2026-05-07 00:43 | 42.92389 | 28.48665 | 36118 ft | 462 kts | 295° |
| 2026-05-07 00:44 | 42.94995 | 28.40646 | 36126 ft | 462 kts | 295° |
| 2026-05-07 00:44 | 42.97594 | 28.32622 | 36122 ft | 462 kts | 295° |
| 2026-05-07 00:45 | 43.00186 | 28.24596 | 36122 ft | 462 kts | 295° |
| 2026-05-07 00:45 | 43.02756 | 28.16617 | 36116 ft | 461 kts | 295° |
| 2026-05-07 00:46 | 43.05333 | 28.08589 | 36109 ft | 461 kts | 295° |
| 2026-05-07 00:46 | 43.07899 | 28.00570 | 36109 ft | 460 kts | 295° |
| 2026-05-07 00:47 | 43.10437 | 27.92619 | 36104 ft | 460 kts | 295° |
| 2026-05-07 00:47 | 43.12988 | 27.84601 | 36094 ft | 459 kts | 295° |
| 2026-05-07 00:48 | 43.15513 | 27.76638 | 36106 ft | 459 kts | 295° |
| 2026-05-07 00:48 | 43.18049 | 27.68621 | 36100 ft | 459 kts | 295° |
| 2026-05-07 00:49 | 43.20579 | 27.60597 | 36092 ft | 459 kts | 295° |
| 2026-05-07 00:49 | 43.23099 | 27.52578 | 36082 ft | 458 kts | 295° |
| 2026-05-07 00:50 | 43.25611 | 27.44563 | 36064 ft | 457 kts | 295° |
| 2026-05-07 00:50 | 43.28098 | 27.36603 | 36060 ft | 456 kts | 295° |
| 2026-05-07 00:51 | 43.30591 | 27.28598 | 36053 ft | 456 kts | 295° |
| 2026-05-07 00:51 | 43.33074 | 27.20600 | 36059 ft | 455 kts | 295° |
| 2026-05-07 00:52 | 43.35551 | 27.12598 | 36061 ft | 455 kts | 295° |
| 2026-05-07 00:52 | 43.38004 | 27.04652 | 36047 ft | 455 kts | 295° |
| 2026-05-07 00:53 | 43.40444 | 26.96720 | 36043 ft | 455 kts | 295° |
| 2026-05-07 00:53 | 43.42902 | 26.88706 | 36046 ft | 455 kts | 295° |
| 2026-05-07 00:54 | 43.45355 | 26.80685 | 36041 ft | 455 kts | 295° |
| 2026-05-07 00:54 | 43.47785 | 26.72716 | 36041 ft | 455 kts | 295° |
| 2026-05-07 00:55 | 43.50227 | 26.64678 | 36032 ft | 455 kts | 295° |
| 2026-05-07 00:55 | 43.52661 | 26.56644 | 36029 ft | 454 kts | 295° |
| 2026-05-07 00:56 | 43.55087 | 26.48611 | 36036 ft | 454 kts | 295° |
| 2026-05-07 00:56 | 43.57504 | 26.40583 | 36026 ft | 454 kts | 295° |
| 2026-05-07 00:57 | 43.59899 | 26.32604 | 36018 ft | 453 kts | 295° |
| 2026-05-07 00:57 | 43.62301 | 26.24573 | 36023 ft | 452 kts | 295° |
| 2026-05-07 00:58 | 43.64694 | 26.16550 | 36028 ft | 452 kts | 294° |
| 2026-05-07 00:58 | 43.67082 | 26.08519 | 36021 ft | 452 kts | 294° |
| 2026-05-07 00:59 | 43.70606 | 25.96620 | 36020 ft | 452 kts | 294° |
| 2026-05-07 01:00 | 43.72978 | 25.88579 | 36020 ft | 452 kts | 294° |
| 2026-05-07 01:00 | 43.75349 | 25.80529 | 36023 ft | 452 kts | 295° |
| 2026-05-07 01:01 | 43.77782 | 25.72511 | 36011 ft | 452 kts | 295° |
| 2026-05-07 01:01 | 43.80221 | 25.64565 | 36022 ft | 451 kts | 295° |
| 2026-05-07 01:02 | 43.82664 | 25.56565 | 36022 ft | 451 kts | 295° |
| 2026-05-07 01:02 | 43.85094 | 25.48553 | 36023 ft | 451 kts | 295° |
| 2026-05-07 01:03 | 43.87516 | 25.40536 | 36012 ft | 451 kts | 295° |
| 2026-05-07 01:03 | 43.89929 | 25.32519 | 36021 ft | 450 kts | 295° |
| 2026-05-07 01:04 | 43.92317 | 25.24560 | 36020 ft | 450 kts | 295° |
| 2026-05-07 01:04 | 43.94713 | 25.16553 | 36025 ft | 449 kts | 295° |
| 2026-05-07 01:05 | 43.97103 | 25.08539 | 36016 ft | 449 kts | 295° |
| 2026-05-07 01:05 | 43.99481 | 25.00540 | 36023 ft | 448 kts | 295° |
| 2026-05-07 01:06 | 44.01813 | 24.92672 | 36023 ft | 448 kts | 294° |
| 2026-05-07 01:06 | 44.04176 | 24.84674 | 36022 ft | 447 kts | 294° |
| 2026-05-07 01:07 | 44.06532 | 24.76674 | 36017 ft | 446 kts | 294° |
| 2026-05-07 01:07 | 44.08874 | 24.68697 | 36019 ft | 445 kts | 294° |
| 2026-05-07 01:08 | 44.11190 | 24.60781 | 36024 ft | 444 kts | 294° |
| 2026-05-07 01:08 | 44.13512 | 24.52825 | 36023 ft | 443 kts | 294° |
| 2026-05-07 01:09 | 44.15823 | 24.44878 | 36011 ft | 442 kts | 294° |
| 2026-05-07 01:09 | 44.18124 | 24.36942 | 36023 ft | 441 kts | 294° |
| 2026-05-07 01:10 | 44.20398 | 24.29071 | 36020 ft | 441 kts | 294° |
| 2026-05-07 01:10 | 44.22680 | 24.21151 | 36020 ft | 440 kts | 294° |
| 2026-05-07 01:11 | 44.24957 | 24.13222 | 36010 ft | 440 kts | 294° |
| 2026-05-07 01:11 | 44.27226 | 24.05296 | 36017 ft | 440 kts | 294° |
| 2026-05-07 01:12 | 44.29447 | 23.97511 | 36025 ft | 440 kts | 294° |
| 2026-05-07 01:12 | 44.31703 | 23.89581 | 36047 ft | 440 kts | 294° |
| 2026-05-07 01:13 | 44.33955 | 23.81638 | 36041 ft | 440 kts | 294° |
| 2026-05-07 01:13 | 44.36201 | 23.73691 | 36045 ft | 439 kts | 294° |
| 2026-05-07 01:14 | 44.38438 | 23.65751 | 36041 ft | 439 kts | 294° |
| 2026-05-07 01:14 | 44.40654 | 23.57861 | 36034 ft | 439 kts | 293° |
| 2026-05-07 01:15 | 44.42877 | 23.49919 | 36029 ft | 438 kts | 293° |
| 2026-05-07 01:15 | 44.45091 | 23.41981 | 36021 ft | 438 kts | 293° |
| 2026-05-07 01:16 | 44.47298 | 23.34048 | 36024 ft | 437 kts | 293° |
| 2026-05-07 01:16 | 44.49481 | 23.26172 | 36019 ft | 437 kts | 293° |
| 2026-05-07 01:17 | 44.51672 | 23.18242 | 36017 ft | 436 kts | 293° |
| 2026-05-07 01:17 | 44.53855 | 23.10314 | 36024 ft | 436 kts | 292° |
| 2026-05-07 01:18 | 44.56029 | 23.02394 | 36022 ft | 435 kts | 292° |
| 2026-05-07 01:18 | 44.58154 | 22.94629 | 36023 ft | 435 kts | 292° |
| 2026-05-07 01:19 | 44.60314 | 22.86708 | 36022 ft | 434 kts | 292° |
| 2026-05-07 01:19 | 44.62468 | 22.78789 | 36020 ft | 434 kts | 292° |
| 2026-05-07 01:20 | 44.64614 | 22.70864 | 36025 ft | 434 kts | 292° |
| 2026-05-07 01:20 | 44.66743 | 22.62981 | 36017 ft | 434 kts | 292° |
| 2026-05-07 01:21 | 44.68879 | 22.55046 | 36024 ft | 435 kts | 292° |
| 2026-05-07 01:21 | 44.71013 | 22.47096 | 36021 ft | 435 kts | 292° |
| 2026-05-07 01:22 | 44.73143 | 22.39127 | 36023 ft | 435 kts | 292° |
| 2026-05-07 01:22 | 44.75255 | 22.31204 | 36020 ft | 436 kts | 291° |
| 2026-05-07 01:23 | 44.77378 | 22.23209 | 36018 ft | 436 kts | 291° |
| 2026-05-07 01:23 | 44.79497 | 22.15205 | 36014 ft | 436 kts | 291° |
| 2026-05-07 01:24 | 44.81609 | 22.07199 | 36023 ft | 436 kts | 291° |
| 2026-05-07 01:24 | 44.83678 | 21.99332 | 36022 ft | 437 kts | 291° |
| 2026-05-07 01:25 | 44.85784 | 21.91293 | 36019 ft | 437 kts | 291° |
| 2026-05-07 01:25 | 44.87883 | 21.83254 | 36019 ft | 437 kts | 291° |
| 2026-05-07 01:26 | 44.89975 | 21.75219 | 36012 ft | 437 kts | 290° |
| 2026-05-07 01:26 | 44.92049 | 21.67222 | 36011 ft | 437 kts | 290° |
| 2026-05-07 01:27 | 44.94130 | 21.59170 | 36010 ft | 437 kts | 290° |
| 2026-05-07 01:27 | 44.96207 | 21.51110 | 36009 ft | 437 kts | 290° |
| 2026-05-07 01:28 | 44.98281 | 21.43049 | 36004 ft | 436 kts | 290° |
| 2026-05-07 01:28 | 45.00858 | 21.35313 | 36023 ft | 436 kts | 297° |
| 2026-05-07 01:29 | 45.03701 | 21.27798 | 36020 ft | 437 kts | 297° |
| 2026-05-07 01:29 | 45.06555 | 21.20216 | 36020 ft | 437 kts | 297° |
| 2026-05-07 01:30 | 45.09390 | 21.12613 | 36020 ft | 437 kts | 296° |
| 2026-05-07 01:30 | 45.12212 | 21.04995 | 36020 ft | 437 kts | 296° |
| 2026-05-07 01:31 | 45.14986 | 20.97484 | 36017 ft | 437 kts | 296° |
| 2026-05-07 01:31 | 45.17799 | 20.89846 | 36013 ft | 437 kts | 296° |
| 2026-05-07 01:32 | 45.20610 | 20.82196 | 36012 ft | 437 kts | 296° |
| 2026-05-07 01:32 | 45.23414 | 20.74543 | 36005 ft | 437 kts | 296° |
| 2026-05-07 01:33 | 45.26195 | 20.66931 | 36009 ft | 437 kts | 296° |
| 2026-05-07 01:33 | 45.28989 | 20.59262 | 36003 ft | 437 kts | 296° |
| 2026-05-07 01:34 | 45.31778 | 20.51585 | 36006 ft | 437 kts | 295° |
| 2026-05-07 01:34 | 45.34543 | 20.43953 | 36000 ft | 437 kts | 295° |
| 2026-05-07 01:35 | 45.37320 | 20.36266 | 36005 ft | 437 kts | 295° |
| 2026-05-07 01:35 | 45.40091 | 20.28574 | 36003 ft | 437 kts | 295° |
| 2026-05-07 01:36 | 45.42866 | 20.20889 | 35992 ft | 437 kts | 296° |
| 2026-05-07 01:36 | 45.45855 | 20.13356 | 35982 ft | 437 kts | 297° |
| 2026-05-07 01:37 | 45.48895 | 20.05917 | 35990 ft | 437 kts | 297° |
| 2026-05-07 01:37 | 45.51898 | 19.98479 | 35991 ft | 437 kts | 297° |
| 2026-05-07 01:38 | 45.54904 | 19.90948 | 35993 ft | 437 kts | 297° |
| 2026-05-07 01:38 | 45.57901 | 19.83399 | 35973 ft | 437 kts | 297° |
| 2026-05-07 01:39 | 45.60874 | 19.75885 | 35989 ft | 438 kts | 297° |
| 2026-05-07 01:39 | 45.63868 | 19.68304 | 35991 ft | 438 kts | 297° |
| 2026-05-07 01:40 | 45.66858 | 19.60711 | 35990 ft | 439 kts | 297° |
| 2026-05-07 01:40 | 45.69847 | 19.53101 | 35981 ft | 439 kts | 297° |
| 2026-05-07 01:41 | 45.72834 | 19.45474 | 35974 ft | 439 kts | 297° |
| 2026-05-07 01:41 | 45.75794 | 19.37896 | 35971 ft | 439 kts | 297° |
| 2026-05-07 01:42 | 45.78769 | 19.30259 | 35973 ft | 439 kts | 296° |
| 2026-05-07 01:42 | 45.81737 | 19.22618 | 35968 ft | 439 kts | 296° |
| 2026-05-07 01:43 | 45.84682 | 19.15015 | 35968 ft | 439 kts | 296° |
| 2026-05-07 01:43 | 45.87641 | 19.07351 | 35968 ft | 440 kts | 296° |
| 2026-05-07 01:44 | 45.90573 | 18.99742 | 35959 ft | 440 kts | 296° |
| 2026-05-07 01:44 | 45.93532 | 18.92048 | 35961 ft | 440 kts | 297° |
| 2026-05-07 01:45 | 45.96621 | 18.84451 | 35962 ft | 441 kts | 298° |
| 2026-05-07 01:45 | 45.99761 | 18.76930 | 35958 ft | 442 kts | 298° |
| 2026-05-07 01:46 | 46.02907 | 18.69342 | 35959 ft | 442 kts | 297° |
| 2026-05-07 01:46 | 46.06038 | 18.61723 | 35982 ft | 442 kts | 297° |
| 2026-05-07 01:47 | 46.09160 | 18.54085 | 35987 ft | 443 kts | 297° |
| 2026-05-07 01:47 | 46.12258 | 18.46483 | 35980 ft | 443 kts | 297° |
| 2026-05-07 01:48 | 46.15374 | 18.38816 | 35977 ft | 443 kts | 297° |
| 2026-05-07 01:48 | 46.18485 | 18.31140 | 35984 ft | 443 kts | 297° |
| 2026-05-07 01:49 | 46.21593 | 18.23453 | 35986 ft | 443 kts | 296° |
| 2026-05-07 01:49 | 46.24674 | 18.15812 | 35963 ft | 443 kts | 296° |
| 2026-05-07 01:50 | 46.27768 | 18.08114 | 35953 ft | 443 kts | 296° |
| 2026-05-07 01:50 | 46.30854 | 18.00418 | 35945 ft | 442 kts | 296° |
| 2026-05-07 01:51 | 46.33901 | 17.92794 | 35946 ft | 442 kts | 296° |
| 2026-05-07 01:51 | 46.36974 | 17.85085 | 35952 ft | 443 kts | 296° |
| 2026-05-07 01:52 | 46.40028 | 17.77401 | 35950 ft | 444 kts | 296° |
| 2026-05-07 01:52 | 46.43104 | 17.69640 | 35956 ft | 445 kts | 296° |
| 2026-05-07 01:53 | 46.46182 | 17.61854 | 35944 ft | 445 kts | 296° |
| 2026-05-07 01:53 | 46.49258 | 17.54051 | 35943 ft | 446 kts | 296° |
| 2026-05-07 01:54 | 46.52314 | 17.46276 | 35931 ft | 447 kts | 295° |
| 2026-05-07 01:54 | 46.55388 | 17.38433 | 35920 ft | 447 kts | 295° |
| 2026-05-07 01:55 | 46.58458 | 17.30578 | 35921 ft | 447 kts | 295° |
| 2026-05-07 01:55 | 46.61522 | 17.22714 | 35937 ft | 447 kts | 295° |
| 2026-05-07 01:56 | 46.64562 | 17.14890 | 35919 ft | 447 kts | 295° |
| 2026-05-07 01:56 | 46.67613 | 17.07015 | 35909 ft | 446 kts | 295° |
| 2026-05-07 01:57 | 46.70624 | 16.99221 | 35912 ft | 446 kts | 295° |
| 2026-05-07 01:57 | 46.73656 | 16.91349 | 35913 ft | 445 kts | 295° |
| 2026-05-07 01:58 | 46.76677 | 16.83483 | 35940 ft | 445 kts | 295° |
| 2026-05-07 01:58 | 46.79696 | 16.75599 | 35897 ft | 445 kts | 295° |
| 2026-05-07 01:59 | 46.82687 | 16.67766 | 35893 ft | 444 kts | 295° |
| 2026-05-07 01:59 | 46.85688 | 16.59883 | 35903 ft | 444 kts | 295° |
| 2026-05-07 02:00 | 46.88685 | 16.51988 | 35898 ft | 444 kts | 295° |
| 2026-05-07 02:00 | 46.91678 | 16.44080 | 35893 ft | 445 kts | 295° |
| 2026-05-07 02:01 | 46.94647 | 16.36214 | 35889 ft | 445 kts | 295° |
| 2026-05-07 02:01 | 46.97634 | 16.28277 | 35886 ft | 445 kts | 295° |
| 2026-05-07 02:02 | 47.00599 | 16.20337 | 35879 ft | 445 kts | 294° |
| 2026-05-07 02:02 | 47.03440 | 16.12286 | 35871 ft | 445 kts | 293° |
| 2026-05-07 02:03 | 47.06238 | 16.04197 | 35869 ft | 445 kts | 293° |
| 2026-05-07 02:03 | 47.08993 | 15.96247 | 35868 ft | 445 kts | 293° |
| 2026-05-07 02:04 | 47.11798 | 15.88164 | 35874 ft | 445 kts | 292° |
| 2026-05-07 02:04 | 47.14605 | 15.80065 | 35868 ft | 445 kts | 292° |
| 2026-05-07 02:05 | 47.17389 | 15.72006 | 35860 ft | 446 kts | 292° |
| 2026-05-07 02:05 | 47.20191 | 15.63873 | 35867 ft | 446 kts | 292° |
| 2026-05-07 02:06 | 47.22989 | 15.55725 | 35864 ft | 446 kts | 292° |
| 2026-05-07 02:06 | 47.25781 | 15.47569 | 35877 ft | 446 kts | 292° |
| 2026-05-07 02:07 | 47.28567 | 15.39406 | 35872 ft | 446 kts | 292° |
| 2026-05-07 02:07 | 47.32716 | 15.27197 | 35865 ft | 446 kts | 292° |
| 2026-05-07 02:08 | 47.35479 | 15.19026 | 35880 ft | 444 kts | 292° |
| 2026-05-07 02:08 | 47.38237 | 15.10866 | 35908 ft | 444 kts | 291° |
| 2026-05-07 02:09 | 47.40987 | 15.02694 | 35875 ft | 445 kts | 291° |
| 2026-05-07 02:09 | 47.43677 | 14.94668 | 35857 ft | 444 kts | 291° |
| 2026-05-07 02:10 | 47.46403 | 14.86537 | 35902 ft | 439 kts | 291° |
| 2026-05-07 02:10 | 47.49106 | 14.78400 | 35862 ft | 443 kts | 291° |
| 2026-05-07 02:11 | 47.51830 | 14.70194 | 35860 ft | 446 kts | 290° |
| 2026-05-07 02:11 | 47.54545 | 14.61998 | 35843 ft | 446 kts | 290° |
| 2026-05-07 02:12 | 47.57228 | 14.53887 | 35384 ft | 434 kts | 290° |
| 2026-05-07 02:12 | 47.58546 | 14.49896 | 34963 ft | 429 kts | 290° |
| 2026-05-07 02:12 | 47.59847 | 14.45942 | 34535 ft | 424 kts | 289° |
| 2026-05-07 02:13 | 47.61131 | 14.42032 | 34097 ft | 420 kts | 289° |
| 2026-05-07 02:13 | 47.62400 | 14.38163 | 33684 ft | 415 kts | 289° |
| 2026-05-07 02:13 | 47.63656 | 14.34325 | 33188 ft | 412 kts | 288° |
| 2026-05-07 02:13 | 47.64898 | 14.30524 | 32718 ft | 408 kts | 288° |
| 2026-05-07 02:14 | 47.66109 | 14.26809 | 32297 ft | 403 kts | 288° |
| 2026-05-07 02:14 | 47.67324 | 14.23083 | 31869 ft | 399 kts | 288° |
| 2026-05-07 02:14 | 47.68525 | 14.19395 | 31444 ft | 394 kts | 288° |
| 2026-05-07 02:14 | 47.69707 | 14.15755 | 31022 ft | 388 kts | 288° |
| 2026-05-07 02:15 | 47.70870 | 14.12176 | 30592 ft | 383 kts | 288° |
| 2026-05-07 02:15 | 47.72011 | 14.08653 | 30290 ft | 376 kts | 288° |
| 2026-05-07 02:15 | 47.73141 | 14.05157 | 29819 ft | 375 kts | 288° |
| 2026-05-07 02:15 | 47.74264 | 14.01681 | 29374 ft | 372 kts | 288° |
| 2026-05-07 02:16 | 47.75340 | 13.98346 | 28988 ft | 368 kts | 288° |
| 2026-05-07 02:16 | 47.76441 | 13.94929 | 28571 ft | 365 kts | 288° |
| 2026-05-07 02:16 | 47.77533 | 13.91537 | 28152 ft | 362 kts | 287° |
| 2026-05-07 02:16 | 47.78613 | 13.88178 | 27763 ft | 358 kts | 287° |
| 2026-05-07 02:17 | 47.79685 | 13.84839 | 27366 ft | 358 kts | 287° |
| 2026-05-07 02:17 | 47.80755 | 13.81485 | 26991 ft | 362 kts | 287° |
| 2026-05-07 02:17 | 47.81845 | 13.78057 | 26568 ft | 371 kts | 288° |
| 2026-05-07 02:17 | 47.82956 | 13.74568 | 26168 ft | 373 kts | 288° |
| 2026-05-07 02:18 | 47.84067 | 13.71087 | 25746 ft | 372 kts | 288° |
| 2026-05-07 02:18 | 47.85176 | 13.67621 | 25324 ft | 370 kts | 288° |
| 2026-05-07 02:18 | 47.86262 | 13.64224 | 24930 ft | 367 kts | 288° |
| 2026-05-07 02:18 | 47.87356 | 13.60795 | 24527 ft | 366 kts | 288° |
| 2026-05-07 02:19 | 47.88442 | 13.57381 | 24124 ft | 364 kts | 288° |
| 2026-05-07 02:19 | 47.89519 | 13.53983 | 23712 ft | 362 kts | 288° |
| 2026-05-07 02:19 | 47.90590 | 13.50597 | 23297 ft | 360 kts | 288° |
| 2026-05-07 02:19 | 47.91657 | 13.47223 | 22822 ft | 359 kts | 288° |
| 2026-05-07 02:20 | 47.92717 | 13.43866 | 22414 ft | 357 kts | 288° |
| 2026-05-07 02:20 | 47.93770 | 13.40528 | 21989 ft | 355 kts | 288° |
| 2026-05-07 02:20 | 47.94817 | 13.37204 | 21584 ft | 353 kts | 288° |
| 2026-05-07 02:20 | 47.95855 | 13.33906 | 21156 ft | 350 kts | 288° |
| 2026-05-07 02:21 | 47.96870 | 13.30675 | 20811 ft | 346 kts | 288° |
| 2026-05-07 02:21 | 47.97887 | 13.27431 | 20410 ft | 345 kts | 288° |
| 2026-05-07 02:21 | 47.98899 | 13.24199 | 20045 ft | 343 kts | 288° |
| 2026-05-07 02:21 | 47.99906 | 13.20979 | 19637 ft | 341 kts | 288° |
| 2026-05-07 02:22 | 48.00906 | 13.17782 | 19247 ft | 340 kts | 289° |
| 2026-05-07 02:22 | 48.01903 | 13.14586 | 18847 ft | 339 kts | 289° |
| 2026-05-07 02:22 | 48.02895 | 13.11402 | 18463 ft | 337 kts | 289° |
| 2026-05-07 02:22 | 48.03882 | 13.08229 | 18068 ft | 337 kts | 289° |
| 2026-05-07 02:23 | 48.04853 | 13.05106 | 17632 ft | 336 kts | 289° |
| 2026-05-07 02:23 | 48.05835 | 13.01949 | 17211 ft | 334 kts | 289° |
| 2026-05-07 02:23 | 48.06793 | 12.98861 | 16813 ft | 333 kts | 289° |
| 2026-05-07 02:23 | 48.07763 | 12.95730 | 16411 ft | 331 kts | 289° |
| 2026-05-07 02:24 | 48.08690 | 12.92600 | 16012 ft | 327 kts | 285° |
| 2026-05-07 02:24 | 48.09316 | 12.89366 | 15626 ft | 320 kts | 276° |
| 2026-05-07 02:24 | 48.09656 | 12.86098 | 15261 ft | 317 kts | 273° |
| 2026-05-07 02:24 | 48.09956 | 12.82845 | 14860 ft | 315 kts | 273° |
| 2026-05-07 02:25 | 48.10248 | 12.79639 | 14486 ft | 315 kts | 273° |
| 2026-05-07 02:25 | 48.10543 | 12.76403 | 14105 ft | 314 kts | 273° |
| 2026-05-07 02:25 | 48.10842 | 12.73167 | 13721 ft | 314 kts | 273° |
| 2026-05-07 02:25 | 48.11141 | 12.69939 | 13305 ft | 313 kts | 274° |
| 2026-05-07 02:26 | 48.11440 | 12.66716 | 12891 ft | 312 kts | 274° |
| 2026-05-07 02:26 | 48.11739 | 12.63510 | 12504 ft | 310 kts | 274° |
| 2026-05-07 02:26 | 48.12036 | 12.60319 | 12112 ft | 309 kts | 274° |
| 2026-05-07 02:26 | 48.12332 | 12.57143 | 11714 ft | 307 kts | 274° |
| 2026-05-07 02:27 | 48.12624 | 12.53981 | 11340 ft | 306 kts | 274° |
| 2026-05-07 02:27 | 48.12915 | 12.50836 | 10972 ft | 304 kts | 273° |
| 2026-05-07 02:27 | 48.13199 | 12.47748 | 10614 ft | 303 kts | 274° |
| 2026-05-07 02:27 | 48.13486 | 12.44625 | 10248 ft | 302 kts | 274° |
| 2026-05-07 02:28 | 48.13769 | 12.41551 | 10101 ft | 293 kts | 274° |
| 2026-05-07 02:28 | 48.14042 | 12.38564 | 9985 ft | 286 kts | 273° |
| 2026-05-07 02:28 | 48.14308 | 12.35638 | 9831 ft | 282 kts | 273° |
| 2026-05-07 02:28 | 48.14551 | 12.32758 | 9654 ft | 275 kts | 272° |
| 2026-05-07 02:29 | 48.14750 | 12.29975 | 9454 ft | 265 kts | 271° |
| 2026-05-07 02:29 | 48.14937 | 12.27239 | 9281 ft | 264 kts | 271° |
| 2026-05-07 02:29 | 48.15124 | 12.24502 | 9104 ft | 265 kts | 271° |
| 2026-05-07 02:29 | 48.15309 | 12.21792 | 8942 ft | 266 kts | 271° |
| 2026-05-07 02:30 | 48.15499 | 12.19035 | 8784 ft | 267 kts | 272° |
| 2026-05-07 02:30 | 48.15690 | 12.16260 | 8619 ft | 268 kts | 272° |
| 2026-05-07 02:30 | 48.15882 | 12.13480 | 8451 ft | 269 kts | 272° |
| 2026-05-07 02:30 | 48.16073 | 12.10689 | 8283 ft | 270 kts | 272° |
| 2026-05-07 02:31 | 48.16266 | 12.07888 | 8108 ft | 270 kts | 272° |
| 2026-05-07 02:31 | 48.16458 | 12.05086 | 7927 ft | 270 kts | 272° |
| 2026-05-07 02:31 | 48.16650 | 12.02302 | 7771 ft | 268 kts | 273° |
| 2026-05-07 02:31 | 48.16832 | 11.99628 | 7601 ft | 267 kts | 273° |
| 2026-05-07 02:32 | 48.17018 | 11.96874 | 7432 ft | 266 kts | 273° |
| 2026-05-07 02:32 | 48.17204 | 11.94124 | 7269 ft | 265 kts | 273° |
| 2026-05-07 02:32 | 48.17444 | 11.91399 | 7081 ft | 263 kts | 284° |
| 2026-05-07 02:32 | 48.18365 | 11.89029 | 6957 ft | 269 kts | 315° |
| 2026-05-07 02:33 | 48.19956 | 11.87624 | 6777 ft | 266 kts | 345° |
| 2026-05-07 02:33 | 48.21758 | 11.87558 | 6590 ft | 258 kts | 16° |
| 2026-05-07 02:33 | 48.23331 | 11.88670 | 6427 ft | 245 kts | 40° |
| 2026-05-07 02:33 | 48.24585 | 11.90290 | 6281 ft | 234 kts | 43° |
| 2026-05-07 02:34 | 48.25766 | 11.91886 | 6120 ft | 230 kts | 44° |
| 2026-05-07 02:34 | 48.26945 | 11.93487 | 5973 ft | 227 kts | 44° |
| 2026-05-07 02:34 | 48.28110 | 11.95070 | 5831 ft | 225 kts | 44° |
| 2026-05-07 02:34 | 48.29258 | 11.96622 | 5720 ft | 218 kts | 44° |
| 2026-05-07 02:35 | 48.30365 | 11.98116 | 5607 ft | 209 kts | 44° |
| 2026-05-07 02:35 | 48.31417 | 11.99529 | 5429 ft | 197 kts | 44° |
| 2026-05-07 02:35 | 48.32403 | 12.00853 | 5316 ft | 184 kts | 44° |
| 2026-05-07 02:35 | 48.33338 | 12.02112 | 5231 ft | 179 kts | 44° |
| 2026-05-07 02:36 | 48.34270 | 12.03365 | 5134 ft | 180 kts | 44° |
| 2026-05-07 02:36 | 48.35272 | 12.04470 | 5004 ft | 186 kts | 21° |
| 2026-05-07 02:36 | 48.36539 | 12.04497 | 4887 ft | 186 kts | 339° |
| 2026-05-07 02:36 | 48.37545 | 12.03254 | 4496 ft | 193 kts | 298° |
| 2026-05-07 02:37 | 48.37835 | 12.01377 | 4167 ft | 178 kts | 271° |
| 2026-05-07 02:37 | 48.37851 | 11.99544 | 3800 ft | 174 kts | 269° |
| 2026-05-07 02:37 | 48.37843 | 11.97774 | 3525 ft | 166 kts | 266° |
| 2026-05-07 02:37 | 48.37754 | 11.96032 | 3342 ft | 168 kts | 263° |
| 2026-05-07 02:38 | 48.37626 | 11.94309 | 3102 ft | 166 kts | 263° |
| 2026-05-07 02:38 | 48.37483 | 11.92602 | 2916 ft | 164 kts | 263° |
| 2026-05-07 02:38 | 48.37351 | 11.90909 | 2720 ft | 166 kts | 264° |
| 2026-05-07 02:38 | 48.37228 | 11.89158 | 2439 ft | 169 kts | 264° |
| 2026-05-07 02:39 | 48.37104 | 11.87430 | 2184 ft | 163 kts | 263° |
| 2026-05-07 02:39 | 48.36959 | 11.85760 | 1978 ft | 161 kts | 263° |
| 2026-05-07 02:39 | 48.36819 | 11.84107 | 1766 ft | 159 kts | 265° |
| 2026-05-07 02:39 | 48.36711 | 11.82462 | 1563 ft | 158 kts | 265° |
| 2026-05-07 02:40 | 48.36586 | 11.80855 | 1474 ft | 144 kts | 264° |
| 2026-05-07 02:40 | 48.36506 | 11.79706 | 1468 ft | 61 kts | 264° |
| 2026-05-07 02:40 | 48.36477 | 11.79353 | 1470 ft | 21 kts | 261° |
| 2026-05-07 02:40 | 48.36455 | 11.79130 | 1470 ft | 22 kts | 262° |
| 2026-05-07 02:41 | 48.36404 | 11.78911 | 1471 ft | 23 kts | 236° |
| 2026-05-07 02:41 | 48.36342 | 11.78783 | 1462 ft | 12 kts | 233° |
| 2026-05-07 02:41 | 48.36285 | 11.78674 | 1460 ft | 14 kts | 232° |
| 2026-05-07 02:41 | 48.36230 | 11.78567 | 1461 ft | 11 kts | 232° |
| 2026-05-07 02:42 | 48.36183 | 11.78503 | 1462 ft | 6 kts | 208° |
| 2026-05-07 02:42 | 48.36146 | 11.78488 | 1462 ft | 6 kts | 188° |
| 2026-05-07 02:42 | 48.36100 | 11.78483 | 1462 ft | 7 kts | 178° |
| 2026-05-07 02:42 | 48.36049 | 11.78502 | 1462 ft | 8 kts | 140° |
| 2026-05-07 02:43 | 48.36036 | 11.78583 | 1464 ft | 9 kts | 89° |
| 2026-05-07 02:43 | 48.36041 | 11.78678 | 1472 ft | 10 kts | 82° |
| 2026-05-07 02:43 | 48.36049 | 11.78760 | 1462 ft | 8 kts | 82° |
| 2026-05-07 02:43 | 48.36057 | 11.78850 | 1466 ft | 9 kts | 82° |
| 2026-05-07 02:44 | 48.36065 | 11.78951 | 1462 ft | 10 kts | 83° |
| 2026-05-07 02:44 | 48.36074 | 11.79060 | 1470 ft | 11 kts | 83° |
| 2026-05-07 02:44 | 48.36083 | 11.79175 | 1470 ft | 10 kts | 83° |
| 2026-05-07 02:44 | 48.36088 | 11.79245 | 1465 ft | 7 kts | 84° |
| 2026-05-07 02:45 | 48.36094 | 11.79326 | 1462 ft | 8 kts | 84° |
| 2026-05-07 02:45 | 48.36100 | 11.79420 | 1469 ft | 9 kts | 85° |
| 2026-05-07 02:45 | 48.36055 | 11.79484 | 1462 ft | 10 kts | 165° |
| 2026-05-07 02:45 | 48.35980 | 11.79494 | 1463 ft | 12 kts | 175° |
| 2026-05-07 02:46 | 48.35900 | 11.79471 | 1463 ft | 13 kts | 204° |
| 2026-05-07 02:46 | 48.35811 | 11.79463 | 1469 ft | 14 kts | 173° |
| 2026-05-07 02:46 | 48.35714 | 11.79480 | 1465 ft | 14 kts | 173° |
| 2026-05-07 02:46 | 48.35611 | 11.79497 | 1465 ft | 15 kts | 174° |
| 2026-05-07 02:47 | 48.35530 | 11.79510 | 1467 ft | 9 kts | 174° |
| 2026-05-07 02:47 | 48.35503 | 11.79471 | 1462 ft | 7 kts | 265° |
| 2026-05-07 02:47 | 48.35496 | 11.79395 | 1466 ft | 8 kts | 263° |
| 2026-05-07 02:47 | 48.35488 | 11.79312 | 1463 ft | 4 kts | 261° |
| 2026-05-07 02:48 | 48.35487 | 11.79304 | 1461 ft | 0 kts | 261° |